Главная страница
METAR-TAF:

METAR-TAF

Аэропорты :

Багдад, Ирак

широта: 33-15-45N, долгота: 44-14-04E, высота над уровнем моря: 35 м

Текущие метеонаблюдения

Эта сводка был подготовлена 40 минут назад, в 15:00 UTC
Ветер 9 Узел от западно-северо-западный
Температура 41°C
Влажность 17%
Давление 998 hPa
Видимость 10 км и более
Нет облачности ниже 1500 м, и нет кучево-дождевой облачности

METAR: ORBI 191500Z 30009KT CAVOK 41/11 Q0998 NOSIG

Время: 18:40 (15:40 UTC)

Прогноз

Эта сводка был подготовлена 5 часа и 40 минут назад, в 10:00 UTC
Прогноз действительный с 19-го 12 UTC до 20-го 12 UTC
Ветер 9 Узел от северо-западный
Видимость 10 км и более
Нет облачности ниже 1500 м, и нет кучево-дождевой облачности

TAF: ORBI 191000Z 1912/2012 32009KT CAVOK

Метеонаблюдения и прогнозы для более 4000 аэропортов (сводки METAR и TAF).

Имеющиеся станции представлены на карте желтыми и красными точками.

Чтобы увидеть название станции, наведите на нее мышь.

Затем щелкните, чтобы увидеть метеонаблюдения и метеопрогнозы.

Управление картой: чтобы увеличить масштаб, щелкните зеленые кнопки с черным крестиком; чтобы уменьшить масштаб, щелкните зеленую кнопку с тире; для просмотра соседних карт щелкайте зеленые стрелки.


METAR-TAF: